Time;durP1;ratioP1;P1;durP2;ratioP2;P2;SDS_P1;SDS_P2;PMS_P1;PMS_P2;Temp;Humidity;BMP_temperature;BMP_pressure;BME280_temperature;BME280_humidity;BME280_pressure;Samples;Min_cycle;Max_cycle;Signal;HPM_P1;HPM_P2
2021/04/26 00:01:50;;;;;;;6.05;2.45;;;6.00;62.70;4.70;102357.00;;;;5053907;28;20760;-69
2021/04/26 00:04:16;;;;;;;11.68;2.30;;;6.90;63.80;4.70;102345.00;;;;5040707;28;20036;-68
2021/04/26 00:06:43;;;;;;;14.07;2.42;;;5.90;62.70;4.70;102353.00;;;;5036606;28;20041;-69
2021/04/26 00:09:09;;;;;;;7.70;2.20;;;6.00;62.80;4.70;102345.00;;;;5034404;28;20474;-69
2021/04/26 00:11:35;;;;;;;4.95;2.05;;;5.90;62.40;4.60;102333.00;;;;5040002;28;20649;-68
2021/04/26 00:14:04;;;;;;;5.82;2.20;;;5.80;62.90;4.60;102346.00;;;;5019765;28;20038;-69
2021/04/26 00:16:30;;;;;;;7.72;2.58;;;5.80;62.80;4.60;102321.00;;;;5059006;28;20153;-68
2021/04/26 00:18:56;;;;;;;8.55;2.28;;;5.80;63.70;4.60;102329.00;;;;5057592;28;20708;-68
2021/04/26 00:21:22;;;;;;;5.95;2.25;;;5.80;63.00;4.50;102336.00;;;;5044144;28;20443;-68
2021/04/26 00:23:47;;;;;;;4.55;2.00;;;5.70;63.10;4.50;102325.00;;;;5056511;28;20169;-68
2021/04/26 00:26:13;;;;;;;9.20;2.53;;;5.70;63.20;4.50;102326.00;;;;5058720;28;20067;-69
2021/04/26 00:28:39;;;;;;;6.47;2.10;;;5.80;63.40;4.50;102325.00;;;;5059921;28;20094;-68
2021/04/26 00:31:05;;;;;;;6.53;2.28;;;5.70;63.60;4.50;102330.00;;;;5058008;28;20524;-68
2021/04/26 00:33:31;;;;;;;7.97;2.22;;;5.70;62.50;4.40;102325.00;;;;5062247;28;20112;-68
2021/04/26 00:35:57;;;;;;;8.40;2.30;;;5.60;63.20;4.40;102324.00;;;;5058392;28;20043;-68
2021/04/26 00:38:23;;;;;;;9.48;2.33;;;5.60;63.40;4.30;102306.00;;;;5036894;28;20782;-68
2021/04/26 00:40:49;;;;;;;7.78;2.30;;;5.60;64.10;4.30;102320.00;;;;5058121;28;20040;-68
2021/04/26 00:43:15;;;;;;;7.13;1.90;;;5.60;63.50;4.30;102319.00;;;;5061248;28;20041;-67
2021/04/26 00:45:41;;;;;;;7.60;2.40;;;5.60;63.20;4.30;102314.00;;;;5060074;28;20044;-68
2021/04/26 00:48:08;;;;;;;6.72;2.10;;;5.60;63.70;4.30;102317.00;;;;5049335;28;20106;-68
2021/04/26 00:50:35;;;;;;;5.50;1.92;;;5.50;63.70;4.20;102314.00;;;;5046547;28;20040;-68
2021/04/26 00:53:03;;;;;;;7.82;2.20;;;5.50;63.60;4.20;102299.00;;;;5070642;28;20167;-68
2021/04/26 00:55:33;;;;;;;5.32;2.13;;;5.60;63.60;4.20;102300.00;;;;5054066;28;20036;-68
2021/04/26 00:58:00;;;;;;;4.13;2.40;;;5.40;64.00;4.20;102301.00;;;;5057061;28;20215;-69
2021/04/26 01:00:29;;;;;;;4.82;2.20;;;5.40;64.00;4.20;102295.00;;;;5052903;28;20669;-68
2021/04/26 01:02:56;;;;;;;7.70;2.50;;;5.40;63.60;4.10;102293.00;;;;5053386;28;20032;-68
2021/04/26 01:05:27;;;;;;;4.35;2.00;;;5.40;63.40;4.10;102291.00;;;;5041107;28;20211;-68
2021/04/26 01:07:54;;;;;;;8.23;2.78;;;5.40;63.70;4.10;102286.00;;;;5055557;28;20056;-68
2021/04/26 01:10:29;;;;;;;4.32;2.35;;;5.40;63.90;4.10;102299.00;;;;5055155;28;20589;-67
2021/04/26 01:13:21;;;;;;;6.00;2.45;;;5.30;63.80;4.00;102288.00;;;;5063408;28;20063;-68
2021/04/26 01:16:12;;;;;;;7.55;2.47;;;5.30;63.40;4.00;102286.00;;;;5067435;28;20098;-68
2021/04/26 01:19:34;;;;;;;7.60;2.40;;;5.30;64.10;3.90;102284.00;;;;5058402;28;20502;-68
2021/04/26 01:22:34;;;;;;;8.05;2.70;;;5.30;64.20;3.90;102288.00;;;;5011316;28;20087;-67
2021/04/26 01:25:22;;;;;;;8.40;2.25;;;5.20;63.80;3.90;102276.00;;;;5058025;28;20067;-68
2021/04/26 01:28:02;;;;;;;8.23;2.40;;;5.20;63.90;3.90;102279.00;;;;5039878;28;20045;-68
2021/04/26 01:30:41;;;;;;;6.00;2.28;;;5.10;63.10;3.90;102278.00;;;;5058619;28;20123;-69
2021/04/26 01:33:21;;;;;;;4.38;2.40;;;5.10;64.40;3.80;102266.00;;;;5055884;28;20150;-69
2021/04/26 01:35:59;;;;;;;6.05;2.72;;;5.10;64.60;3.80;102265.00;;;;5056140;28;20581;-69
2021/04/26 01:38:36;;;;;;;6.53;2.80;;;5.10;64.10;3.80;102263.00;;;;5055133;28;20044;-69
2021/04/26 01:41:03;;;;;;;4.93;2.43;;;5.10;64.60;3.80;102259.00;;;;5046502;28;20722;-69
2021/04/26 01:43:30;;;;;;;;;;;4.80;64.40;3.70;102258.00;;;;5039032;28;20043;-69
2021/04/26 01:46:01;;;;;;;8.48;2.20;;;5.00;65.30;3.70;102261.00;;;;5088030;27;20035;-67
2021/04/26 01:48:33;;;;;;;9.07;2.70;;;5.00;64.30;3.70;102258.00;;;;5063704;28;20032;-67
2021/04/26 01:51:02;;;;;;;12.07;2.85;;;5.00;64.30;3.70;102260.00;;;;5034910;28;20045;-68
2021/04/26 01:53:29;;;;;;;7.72;2.70;;;5.00;64.80;3.70;102251.00;;;;5035315;28;20049;-68
2021/04/26 01:56:02;;;;;;;7.03;2.63;;;4.90;64.50;3.60;102254.00;;;;5030684;28;20028;-68
2021/04/26 01:58:39;;;;;;;7.15;2.28;;;4.90;64.70;3.60;102242.00;;;;5034413;28;20036;-67
2021/04/26 02:01:06;;;;;;;5.68;2.20;;;4.90;65.40;3.60;102237.00;;;;5036353;28;20527;-68
2021/04/26 02:03:33;;;;;;;7.00;2.33;;;5.20;65.50;3.60;102242.00;;;;5035820;28;20044;-68
2021/04/26 02:06:05;;;;;;;4.97;2.50;;;4.80;64.10;3.50;102242.00;;;;5035872;28;20041;-68
2021/04/26 02:08:46;;;;;;;6.72;2.38;;;4.80;65.00;3.50;102243.00;;;;5056294;28;20051;-68
2021/04/26 02:11:14;;;;;;;8.18;2.47;;;4.80;64.70;3.40;102239.00;;;;5055351;28;20025;-67
2021/04/26 02:13:45;;;;;;;8.10;2.63;;;4.80;65.30;3.40;102248.00;;;;5047448;28;20041;-68
2021/04/26 02:16:11;;;;;;;8.80;2.92;;;4.80;65.30;3.40;102250.00;;;;5022863;28;20579;-68
2021/04/26 02:18:37;;;;;;;5.82;2.40;;;4.70;65.40;3.40;102256.00;;;;5056896;28;20098;-67
2021/04/26 02:21:04;;;;;;;7.97;2.95;;;4.70;65.60;3.40;102243.00;;;;5060359;28;20052;-67
2021/04/26 02:23:31;;;;;;;8.25;2.78;;;4.60;65.60;3.30;102231.00;;;;5036238;28;20508;-68
2021/04/26 02:25:59;;;;;;;8.80;2.50;;;4.60;65.70;3.30;102233.00;;;;5034627;28;20045;-68
2021/04/26 02:28:37;;;;;;;9.18;2.90;;;4.60;65.30;3.30;102243.00;;;;5046846;28;20044;-69
2021/04/26 02:31:07;;;;;;;7.95;3.10;;;4.60;65.40;3.30;102243.00;;;;5000817;28;20622;-68
2021/04/26 02:33:43;;;;;;;9.07;2.92;;;4.60;64.90;3.20;102238.00;;;;5052525;28;20464;-69
2021/04/26 02:36:26;;;;;;;5.00;2.55;;;4.50;66.30;3.20;102223.00;;;;5019151;28;20041;-69
2021/04/26 02:38:54;;;;;;;13.10;3.22;;;4.50;66.20;3.20;102220.00;;;;5064748;28;20040;-68
2021/04/26 02:41:29;;;;;;;8.98;2.60;;;4.50;67.20;3.20;102225.00;;;;5045118;28;20040;-69
2021/04/26 02:44:12;;;;;;;9.00;3.05;;;4.50;65.80;3.10;102211.00;;;;5061612;28;20613;-69
2021/04/26 02:46:43;;;;;;;7.25;2.80;;;4.50;66.00;3.10;102222.00;;;;5034201;28;20045;-68
2021/04/26 02:49:11;;;;;;;9.50;3.45;;;4.40;66.30;3.10;102212.00;;;;5024161;28;20044;-68
2021/04/26 02:51:38;;;;;;;9.93;2.97;;;4.40;66.80;3.00;102216.00;;;;5053762;28;20039;-68
2021/04/26 02:54:07;;;;;;;7.80;2.72;;;4.40;66.80;3.10;102210.00;;;;5042673;28;20036;-68
2021/04/26 02:56:36;;;;;;;;;;;4.30;66.60;3.00;102205.00;;;;5036840;28;20068;-68
2021/04/26 02:59:07;;;;;;;7.88;3.03;;;4.30;66.10;3.00;102198.00;;;;5070855;28;19930;-68
2021/04/26 03:01:42;;;;;;;8.00;2.75;;;4.30;66.20;3.00;102201.00;;;;5058958;28;20047;-68
2021/04/26 03:04:18;;;;;;;5.72;2.80;;;8.70;69.40;3.00;102194.00;;;;5074112;28;20103;-68
2021/04/26 03:06:47;;;;;;;9.82;3.45;;;4.30;66.50;3.00;102191.00;;;;5063182;28;20064;-69
2021/04/26 03:09:22;;;;;;;5.65;3.00;;;4.30;67.40;2.90;102188.00;;;;5027966;28;20782;-68
2021/04/26 03:11:54;;;;;;;6.57;2.90;;;4.30;67.00;2.90;102188.00;;;;5074127;28;20049;-68
2021/04/26 03:14:24;;;;;;;8.05;3.30;;;4.30;67.20;2.80;102177.00;;;;5045306;28;20041;-68
2021/04/26 03:16:53;;;;;;;10.10;3.47;;;4.20;66.60;2.90;102179.00;;;;5058965;28;20537;-68
2021/04/26 03:19:20;;;;;;;;;;;4.20;66.90;2.80;102174.00;;;;5058959;28;20843;-68
2021/04/26 03:21:48;;;;;;;6.70;3.45;;;4.50;69.00;2.70;102186.00;;;;5074722;28;19951;-68
2021/04/26 03:24:17;;;;;;;8.95;3.00;;;4.10;69.10;2.80;102181.00;;;;5057200;28;20148;-68
2021/04/26 03:26:46;;;;;;;8.63;3.35;;;4.10;67.90;2.80;102176.00;;;;5059399;28;20483;-68
2021/04/26 03:29:21;;;;;;;7.95;2.80;;;4.10;68.20;2.70;102170.00;;;;5060363;28;20051;-68
2021/04/26 03:31:50;;;;;;;7.28;3.22;;;4.10;68.10;2.70;102175.00;;;;5045312;28;20051;-68
2021/04/26 03:34:20;;;;;;;6.35;3.20;;;4.10;67.90;2.70;102170.00;;;;5056120;28;20106;-68
2021/04/26 03:36:47;;;;;;;8.80;3.15;;;4.10;67.60;2.70;102174.00;;;;5055245;28;20044;-69
2021/04/26 03:39:14;;;;;;;7.03;3.17;;;4.00;67.80;2.70;102165.00;;;;5046104;28;20029;-67
2021/04/26 03:41:41;;;;;;;;;;;4.00;67.70;2.60;102166.00;;;;5061269;28;20470;-68
2021/04/26 03:44:17;;;;;;;8.38;3.50;;;3.90;68.50;2.60;102174.00;;;;5075196;28;19921;-68
2021/04/26 03:47:21;;;;;;;8.63;3.30;;;4.00;69.30;2.60;102166.00;;;;5002042;28;20050;-68
2021/04/26 03:50:12;;;;;;;11.02;3.70;;;3.90;67.20;2.60;102164.00;;;;4976995;28;20038;-68
2021/04/26 03:52:57;;;;;;;5.95;3.15;;;3.90;68.10;2.60;102170.00;;;;5044267;28;20581;-68
2021/04/26 03:55:42;;;;;;;8.38;3.30;;;3.90;68.40;2.50;102164.00;;;;5061891;28;20330;-68
2021/04/26 03:58:08;;;;;;;9.77;3.80;;;3.90;68.60;2.50;102166.00;;;;5062246;28;20051;-68
2021/04/26 04:00:35;;;;;;;7.28;3.40;;;3.90;68.20;2.50;102162.00;;;;5074196;28;20044;-67
2021/04/26 04:03:06;;;;;;;9.95;3.60;;;6.30;70.00;2.50;102164.00;;;;5052876;28;20128;-67
2021/04/26 04:05:34;;;;;;;10.98;4.25;;;3.90;68.90;2.50;102160.00;;;;5054429;28;20052;-67
2021/04/26 04:08:19;;;;;;;14.00;4.15;;;3.90;69.20;2.50;102158.00;;;;5053546;28;20098;-68
2021/04/26 04:11:03;;;;;;;15.82;3.97;;;3.80;69.10;2.50;102156.00;;;;5054704;28;20070;-68
2021/04/26 04:13:48;;;;;;;10.20;4.18;;;3.80;68.90;2.40;102166.00;;;;5060513;28;20590;-69
2021/04/26 04:16:14;;;;;;;10.05;4.07;;;3.80;68.40;2.40;102159.00;;;;5058795;28;20078;-68
2021/04/26 04:18:41;;;;;;;8.02;3.40;;;3.70;68.30;2.40;102158.00;;;;5046939;28;20036;-68
2021/04/26 04:21:07;;;;;;;6.22;3.30;;;3.80;69.20;2.40;102152.00;;;;5062426;28;20048;-68
2021/04/26 04:23:34;;;;;;;9.85;3.63;;;3.80;69.40;2.40;102158.00;;;;5061540;28;20037;-68
2021/04/26 04:26:00;;;;;;;11.68;3.63;;;3.70;70.20;2.40;102153.00;;;;5053599;28;20048;-69
2021/04/26 04:28:30;;;;;;;9.43;3.55;;;3.70;69.50;2.40;102152.00;;;;5052791;28;20033;-68
2021/04/26 04:30:59;;;;;;;9.27;3.63;;;3.80;69.50;2.40;102161.00;;;;5034627;28;20640;-68
2021/04/26 04:33:48;;;;;;;8.02;3.45;;;3.90;70.10;2.40;102156.00;;;;5038329;28;20082;-68
2021/04/26 04:36:32;;;;;;;7.60;3.70;;;3.70;69.80;2.30;102144.00;;;;5056391;28;20070;-68
2021/04/26 04:39:17;;;;;;;11.57;4.30;;;3.70;69.30;2.30;102147.00;;;;5048190;28;20051;-69
2021/04/26 04:42:01;;;;;;;9.23;3.90;;;3.70;68.70;2.30;102148.00;;;;5044995;28;20090;-68
2021/04/26 04:44:30;;;;;;;9.30;4.25;;;4.10;70.30;2.40;102147.00;;;;5056884;28;20163;-69
2021/04/26 04:46:56;;;;;;;9.25;4.10;;;3.70;70.00;2.40;102140.00;;;;5056161;28;20086;-69
2021/04/26 04:49:26;;;;;;;8.70;3.90;;;3.70;68.90;2.30;102130.00;;;;5006508;28;20072;-68
2021/04/26 04:51:52;;;;;;;9.07;4.07;;;3.70;69.70;2.30;102136.00;;;;5038277;28;20040;-68
2021/04/26 04:54:18;;;;;;;5.47;3.20;;;3.70;70.50;2.40;102131.00;;;;5061404;28;20028;-68
2021/04/26 04:57:06;;;;;;;9.18;3.58;;;3.70;69.60;2.30;102148.00;;;;5044563;28;20086;-68
2021/04/26 04:59:37;;;;;;;14.13;5.47;;;3.70;70.00;2.40;102151.00;;;;5055195;28;20040;-68
2021/04/26 05:02:20;;;;;;;8.15;3.90;;;3.70;70.70;2.30;102158.00;;;;5040356;28;20036;-68
2021/04/26 05:05:12;;;;;;;8.75;3.50;;;3.70;70.00;2.30;102143.00;;;;5037729;28;20072;-69
2021/04/26 05:08:01;;;;;;;;;;;3.70;69.20;2.30;102141.00;;;;5034368;28;20056;-68
2021/04/26 05:10:45;;;;;;;11.13;3.70;;;3.70;70.00;2.40;102140.00;;;;5056124;28;19931;-68
2021/04/26 05:13:49;;;;;;;8.57;3.70;;;3.70;69.10;2.40;102154.00;;;;5038921;28;20047;-68
2021/04/26 05:16:17;;;;;;;8.50;4.05;;;3.80;70.30;2.50;102147.00;;;;5057054;28;20115;-68
2021/04/26 05:18:43;;;;;;;9.80;4.05;;;3.80;70.30;2.50;102137.00;;;;5054932;28;20037;-69
2021/04/26 05:21:09;;;;;;;9.98;3.72;;;3.80;70.60;2.50;102145.00;;;;5056961;28;20045;-68
2021/04/26 05:23:35;;;;;;;11.07;3.88;;;3.80;70.80;2.60;102132.00;;;;5041819;28;20043;-69
2021/04/26 05:26:01;;;;;;;9.65;4.10;;;3.90;70.60;2.60;102142.00;;;;5054440;28;21157;-69
2021/04/26 05:28:28;;;;;;;10.27;4.15;;;3.90;70.70;2.60;102143.00;;;;5057959;28;20041;-68
2021/04/26 05:30:57;;;;;;;9.85;3.78;;;4.00;70.30;2.70;102143.00;;;;5039842;28;20080;-68
2021/04/26 05:33:23;;;;;;;8.27;3.45;;;4.00;70.60;2.80;102144.00;;;;5058017;28;20075;-68
2021/04/26 05:35:55;;;;;;;8.45;3.63;;;4.00;70.60;2.90;102143.00;;;;5051650;28;20045;-68
2021/04/26 05:38:25;;;;;;;9.45;3.80;;;4.10;70.60;3.00;102131.00;;;;5061842;28;20103;-68
2021/04/26 05:40:51;;;;;;;6.22;4.05;;;4.10;69.90;3.00;102139.00;;;;5022630;28;20608;-68
2021/04/26 05:43:19;;;;;;;10.50;4.28;;;4.20;70.30;3.10;102140.00;;;;5057531;28;20098;-68
2021/04/26 05:45:48;;;;;;;9.52;3.80;;;4.30;69.60;3.20;102139.00;;;;5053094;28;20102;-67
2021/04/26 05:48:17;;;;;;;8.23;3.60;;;4.30;70.30;3.30;102137.00;;;;5057768;28;20056;-67
2021/04/26 05:50:43;;;;;;;8.73;3.85;;;4.40;69.20;3.30;102147.00;;;;5055546;28;20060;-68
2021/04/26 05:53:09;;;;;;;7.22;3.50;;;4.30;70.10;3.40;102140.00;;;;5055753;28;20127;-68
2021/04/26 05:55:34;;;;;;;7.20;3.10;;;4.60;69.60;3.50;102150.00;;;;5051800;28;20841;-68
2021/04/26 05:58:01;;;;;;;9.52;3.85;;;4.70;68.90;3.60;102144.00;;;;5048504;28;20044;-69
2021/04/26 06:00:27;;;;;;;7.05;3.78;;;3.80;67.90;3.70;102139.00;;;;5063414;28;20601;-68
2021/04/26 06:02:52;;;;;;;6.30;3.20;;;4.80;68.90;3.80;102143.00;;;;5053244;28;20094;-70
2021/04/26 06:05:18;;;;;;;7.32;3.13;;;4.90;69.00;3.90;102140.00;;;;5039910;28;20136;-68
2021/04/26 06:07:45;;;;;;;6.57;3.45;;;4.50;69.20;3.90;102131.00;;;;5055358;28;20045;-68
2021/04/26 06:10:12;;;;;;;9.80;3.08;;;5.00;68.40;4.10;102145.00;;;;5055232;28;20048;-68
2021/04/26 06:12:38;;;;;;;11.45;3.60;;;5.10;68.90;4.20;102139.00;;;;5061670;28;20037;-68
2021/04/26 06:15:06;;;;;;;8.07;3.58;;;5.20;68.70;4.30;102142.00;;;;5036023;28;20036;-69
2021/04/26 06:17:32;;;;;;;11.60;3.70;;;5.40;67.80;4.50;102149.00;;;;5067543;28;20384;-69
2021/04/26 06:19:58;;;;;;;8.63;3.28;;;5.40;68.40;4.60;102151.00;;;;5055367;28;20051;-70
2021/04/26 06:22:24;;;;;;;7.55;3.03;;;5.60;67.20;4.70;102164.00;;;;5055565;28;20045;-68
2021/04/26 06:24:49;;;;;;;8.73;3.63;;;5.70;67.10;4.70;102159.00;;;;5054421;28;20049;-69
2021/04/26 06:27:16;;;;;;;8.90;3.15;;;5.70;66.80;4.90;102166.00;;;;5054337;28;20465;-68
2021/04/26 06:29:42;;;;;;;10.93;3.40;;;5.80;66.60;5.00;102165.00;;;;5055170;28;20041;-68
2021/04/26 06:32:08;;;;;;;8.30;3.30;;;6.30;68.10;5.10;102170.00;;;;5031299;28;20041;-68
2021/04/26 06:34:35;;;;;;;11.07;3.53;;;6.20;66.40;5.30;102162.00;;;;5044702;28;20509;-67
2021/04/26 06:37:01;;;;;;;8.13;3.13;;;6.20;67.30;5.40;102158.00;;;;5055733;28;20036;-68
2021/04/26 06:39:27;;;;;;;8.93;3.28;;;6.30;65.40;5.50;102150.00;;;;5052511;28;20090;-69
2021/04/26 06:41:57;;;;;;;5.97;3.20;;;6.50;65.40;5.60;102168.00;;;;5051240;28;20028;-69
2021/04/26 06:44:23;;;;;;;5.13;3.10;;;6.50;64.30;5.60;102175.00;;;;5036848;28;20126;-69
2021/04/26 06:46:49;;;;;;;11.73;3.10;;;6.70;64.90;5.80;102167.00;;;;5074659;28;20047;-68
2021/04/26 06:49:19;;;;;;;6.82;2.80;;;6.70;64.90;6.00;102168.00;;;;5050984;28;20037;-69
2021/04/26 06:51:48;;;;;;;6.43;3.10;;;6.80;65.70;6.10;102167.00;;;;5059765;28;20048;-68
2021/04/26 06:54:15;;;;;;;5.38;2.92;;;6.90;64.50;6.10;102166.00;;;;5055608;28;20469;-68
2021/04/26 06:56:41;;;;;;;4.65;2.40;;;7.00;63.90;6.20;102157.00;;;;5058932;28;20041;-68
2021/04/26 06:59:08;;;;;;;8.25;3.00;;;7.10;64.00;6.20;102160.00;;;;5056171;28;20052;-68
2021/04/26 07:01:35;;;;;;;8.32;3.20;;;;;6.40;102159.00;;;;5052794;28;20467;-68
2021/04/26 07:04:00;;;;;;;7.15;3.00;;;7.20;63.60;6.50;102170.00;;;;5056061;28;20048;-68
2021/04/26 07:06:26;;;;;;;8.70;3.22;;;8.50;65.40;6.70;102162.00;;;;5053418;28;20361;-69
2021/04/26 07:08:52;;;;;;;5.20;2.83;;;7.50;63.40;6.80;102153.00;;;;5058460;28;20392;-68
2021/04/26 07:11:18;;;;;;;6.68;3.20;;;7.70;63.60;6.90;102160.00;;;;5043565;28;20032;-68
2021/04/26 07:13:44;;;;;;;7.20;2.92;;;7.80;63.10;7.00;102156.00;;;;5054690;28;20040;-67
2021/04/26 07:16:10;;;;;;;6.55;2.90;;;7.80;64.50;7.10;102157.00;;;;5058681;28;20048;-69
2021/04/26 07:18:37;;;;;;;5.07;2.97;;;7.90;63.80;7.00;102153.00;;;;5055867;28;20083;-68
2021/04/26 07:21:04;;;;;;;6.90;2.65;;;7.90;60.90;6.80;102158.00;;;;5054470;28;20056;-68
2021/04/26 07:23:30;;;;;;;10.02;3.47;;;7.80;62.30;6.90;102147.00;;;;5050824;28;20037;-68
2021/04/26 07:25:56;;;;;;;8.57;2.97;;;6.10;61.20;7.10;102141.00;;;;5040875;28;20134;-68
2021/04/26 07:28:21;;;;;;;5.97;3.10;;;7.90;63.40;7.30;102135.00;;;;5070585;28;20036;-68
2021/04/26 07:30:47;;;;;;;5.40;2.50;;;8.10;63.50;7.50;102146.00;;;;5062696;28;20110;-68
2021/04/26 07:33:13;;;;;;;9.93;3.08;;;8.20;63.00;7.60;102140.00;;;;5061492;28;20388;-69
2021/04/26 07:35:39;;;;;;;9.40;3.40;;;8.30;62.20;7.80;102139.00;;;;5058104;28;20052;-68
2021/04/26 07:38:05;;;;;;;6.50;3.08;;;7.70;61.50;7.90;102133.00;;;;5065356;28;20029;-68
2021/04/26 07:40:31;;;;;;;7.78;3.08;;;8.50;61.80;7.90;102131.00;;;;5060449;28;20052;-69
2021/04/26 07:43:00;;;;;;;6.03;2.75;;;8.70;61.50;8.00;102129.00;;;;5060119;28;20131;-68
2021/04/26 07:45:26;;;;;;;6.22;2.78;;;8.80;60.50;8.30;102125.00;;;;5059924;28;20546;-69
2021/04/26 07:47:54;;;;;;;7.50;2.78;;;9.10;59.40;8.40;102135.00;;;;5057107;28;20516;-69
2021/04/26 07:50:21;;;;;;;7.57;2.63;;;9.10;61.20;8.60;102135.00;;;;5039110;28;20476;-68
2021/04/26 07:52:46;;;;;;;8.07;2.85;;;9.80;61.70;8.70;102135.00;;;;5061337;28;20155;-69
2021/04/26 07:55:13;;;;;;;8.45;2.90;;;9.50;59.80;8.70;102138.00;;;;5059275;28;20127;-69
2021/04/26 07:57:39;;;;;;;8.50;3.00;;;9.50;57.80;8.70;102134.00;;;;5081082;28;20425;-69
2021/04/26 08:00:06;;;;;;;5.80;2.78;;;9.50;60.00;8.80;102147.00;;;;5062124;28;20044;-69
2021/04/26 08:02:33;;;;;;;9.80;3.13;;;9.60;59.80;8.80;102142.00;;;;5057434;28;20064;-69
2021/04/26 08:04:59;;;;;;;5.70;3.22;;;9.60;59.50;9.00;102142.00;;;;5061063;28;20447;-69
2021/04/26 08:07:25;;;;;;;6.25;3.00;;;9.70;58.30;9.10;102135.00;;;;5061510;28;20056;-70
2021/04/26 08:09:51;;;;;;;6.35;2.92;;;9.80;58.70;9.10;102133.00;;;;5061019;28;20049;-69
2021/04/26 08:12:18;;;;;;;7.80;2.63;;;9.90;58.40;9.10;102141.00;;;;5048550;28;20548;-68
2021/04/26 08:14:44;;;;;;;5.25;2.80;;;9.90;57.40;9.10;102136.00;;;;5060786;28;20757;-69
2021/04/26 08:17:10;;;;;;;6.55;2.78;;;9.90;57.60;9.20;102132.00;;;;5056029;28;20048;-69
2021/04/26 08:19:36;;;;;;;6.30;2.97;;;9.80;58.30;9.40;102138.00;;;;5039074;28;20037;-69
2021/04/26 08:22:02;;;;;;;4.57;2.90;;;;;9.60;102141.00;;;;5059465;28;20082;-68
2021/04/26 08:24:28;;;;;;;7.20;3.10;;;10.40;55.70;9.90;102140.00;;;;5057373;28;20033;-69
2021/04/26 08:26:55;;;;;;;7.43;3.50;;;10.50;56.50;10.10;102142.00;;;;5057502;28;20037;-68
2021/04/26 08:29:22;;;;;;;;;;;10.80;55.90;10.20;102145.00;;;;5056957;28;20041;-68
2021/04/26 08:31:48;;;;;;;4.00;2.80;;;10.80;54.60;10.40;102143.00;;;;5056727;28;19924;-69
2021/04/26 08:34:14;;;;;;;6.67;3.23;;;10.30;57.30;10.60;102144.00;;;;5071222;28;20125;-70
2021/04/26 08:36:40;;;;;;;7.05;2.75;;;11.10;56.50;10.60;102135.00;;;;5058349;28;20032;-69
2021/04/26 08:39:07;;;;;;;6.22;3.35;;;11.40;53.30;10.80;102134.00;;;;5061123;28;20067;-70
2021/04/26 08:41:33;;;;;;;10.85;3.58;;;11.40;56.00;10.90;102125.00;;;;5061884;28;20044;-69
2021/04/26 08:43:59;;;;;;;5.28;2.72;;;11.50;56.10;11.10;102120.00;;;;5061706;28;20066;-69
2021/04/26 08:46:25;;;;;;;6.63;3.03;;;11.70;53.80;11.20;102128.00;;;;5063168;28;20052;-69
2021/04/26 08:48:51;;;;;;;6.53;2.90;;;11.80;55.30;11.10;102119.00;;;;5057141;28;20021;-69
2021/04/26 08:51:16;;;;;;;6.20;3.40;;;11.30;54.50;11.10;102106.00;;;;5055593;28;20108;-69
2021/04/26 08:53:43;;;;;;;9.80;3.30;;;11.80;54.90;11.20;102129.00;;;;5063856;28;20041;-69
2021/04/26 08:56:09;;;;;;;4.85;2.88;;;12.00;54.70;11.30;102110.00;;;;5056973;28;20029;-69
2021/04/26 08:58:36;;;;;;;6.30;2.78;;;12.00;53.10;11.50;102109.00;;;;5053934;28;20388;-70
2021/04/26 09:01:03;;;;;;;5.65;3.05;;;12.10;52.90;11.60;102113.00;;;;5055883;28;20044;-72
2021/04/26 09:03:39;;;;;;;5.35;3.08;;;12.20;49.20;11.50;102107.00;;;;5053189;28;20037;-70
2021/04/26 09:06:11;;;;;;;5.30;3.13;;;12.20;52.90;11.50;102113.00;;;;5035054;28;20055;-69
2021/04/26 09:08:37;;;;;;;6.53;2.80;;;12.20;48.30;11.50;102112.00;;;;5054045;28;20044;-69
2021/04/26 09:11:06;;;;;;;4.53;2.75;;;12.20;50.20;11.50;102116.00;;;;5061996;28;20135;-70
2021/04/26 09:13:52;;;;;;;5.32;2.88;;;12.40;51.60;11.70;102099.00;;;;5062199;28;20048;-69
2021/04/26 09:16:27;;;;;;;6.43;3.17;;;12.50;51.30;11.90;102094.00;;;;5055268;28;20078;-69
2021/04/26 09:19:03;;;;;;;5.97;2.83;;;12.60;46.70;12.10;102101.00;;;;5072577;28;20049;-69
2021/04/26 09:21:33;;;;;;;6.75;2.65;;;12.80;50.10;12.30;102096.00;;;;5056648;28;20040;-69
2021/04/26 09:24:24;;;;;;;6.25;2.92;;;12.90;46.90;12.40;102090.00;;;;5054552;28;20530;-69
2021/04/26 09:27:13;;;;;;;6.65;3.08;;;13.00;50.90;12.50;102088.00;;;;5047009;28;20040;-69
2021/04/26 09:29:41;;;;;;;7.93;3.15;;;13.10;50.70;12.70;102092.00;;;;5036670;28;20213;-69
2021/04/26 09:32:17;;;;;;;8.00;2.95;;;13.20;50.40;12.70;102099.00;;;;5054494;28;20072;-71
2021/04/26 09:34:45;;;;;;;8.70;3.25;;;13.30;49.90;12.80;102095.00;;;;5052702;28;20041;-69
2021/04/26 09:37:25;;;;;;;6.03;2.92;;;13.40;43.70;12.80;102096.00;;;;5037639;28;20048;-69
2021/04/26 09:40:07;;;;;;;3.75;2.90;;;13.50;49.10;12.90;102089.00;;;;5058498;28;20029;-69
2021/04/26 09:42:50;;;;;;;8.38;2.90;;;13.60;49.70;13.10;102091.00;;;;5053690;28;20040;-69
2021/04/26 09:45:29;;;;;;;8.68;3.47;;;13.80;44.50;13.30;102084.00;;;;5074433;28;20467;-70
2021/04/26 09:48:15;;;;;;;5.80;3.13;;;14.10;48.60;13.50;102086.00;;;;5055253;28;20127;-69
2021/04/26 09:51:09;;;;;;;5.97;2.97;;;14.10;47.50;13.40;102093.00;;;;5062697;28;20051;-70
2021/04/26 09:53:41;;;;;;;6.63;3.00;;;14.00;46.50;13.20;102085.00;;;;5059950;28;20040;-69
2021/04/26 09:56:15;;;;;;;4.97;3.13;;;13.80;40.90;12.80;102088.00;;;;5057348;28;20063;-69
2021/04/26 09:58:43;;;;;;;7.07;3.20;;;13.70;44.10;12.70;102089.00;;;;5055894;28;20064;-70
2021/04/26 10:01:10;;;;;;;5.55;3.05;;;13.60;47.70;12.70;102077.00;;;;5038921;28;20414;-70
2021/04/26 10:03:36;;;;;;;5.83;2.60;;;13.70;48.00;12.90;102073.00;;;;5060865;28;20049;-69
2021/04/26 10:06:03;;;;;;;5.75;3.20;;;13.60;47.40;13.00;102079.00;;;;5057870;28;21604;-69
2021/04/26 10:08:30;;;;;;;9.30;3.00;;;13.70;47.20;13.20;102067.00;;;;5058806;28;20109;-69
2021/04/26 10:10:59;;;;;;;3.88;2.80;;;13.90;45.60;13.40;102066.00;;;;5050815;28;20305;-69
2021/04/26 10:13:26;;;;;;;7.25;3.40;;;14.00;45.20;13.50;102073.00;;;;5056486;28;20187;-69
2021/04/26 10:15:59;;;;;;;8.82;3.38;;;14.10;44.60;13.70;102056.00;;;;5052720;28;20129;-70
2021/04/26 10:18:37;;;;;;;5.50;3.28;;;14.30;44.70;13.80;102065.00;;;;5068444;28;20044;-69
2021/04/26 10:21:25;;;;;;;3.85;2.60;;;14.40;44.50;13.60;102047.00;;;;5052886;28;20491;-69
2021/04/26 10:23:54;;;;;;;10.00;3.20;;;14.40;41.10;13.70;102050.00;;;;5044806;28;20045;-70
2021/04/26 10:26:50;;;;;;;10.35;3.40;;;14.60;45.60;13.50;102054.00;;;;5057848;28;20299;-69
2021/04/26 10:29:34;;;;;;;5.72;3.03;;;14.40;41.40;13.30;102056.00;;;;5055454;28;20048;-70
2021/04/26 10:32:10;;;;;;;7.13;3.65;;;13.40;43.40;13.50;102055.00;;;;5026115;28;20499;-69
2021/04/26 10:34:42;;;;;;;8.40;3.60;;;14.30;41.70;13.70;102045.00;;;;5056195;28;20051;-69
2021/04/26 10:37:14;;;;;;;6.10;3.28;;;14.40;40.50;13.70;102046.00;;;;5055244;28;20170;-69
2021/04/26 10:39:59;;;;;;;4.63;2.80;;;14.30;42.80;13.60;102047.00;;;;5056129;28;20055;-69
2021/04/26 10:42:43;;;;;;;5.50;3.13;;;14.30;43.80;13.90;102025.00;;;;5060263;28;20041;-69
2021/04/26 10:45:12;;;;;;;6.68;3.28;;;14.50;44.50;13.90;102025.00;;;;5057203;28;20044;-70
2021/04/26 10:47:41;;;;;;;5.65;3.08;;;14.60;43.40;13.90;102024.00;;;;5062324;28;20047;-69
2021/04/26 10:50:06;;;;;;;5.05;2.97;;;14.70;42.70;14.00;102032.00;;;;5019000;28;20049;-69
2021/04/26 10:52:36;;;;;;;8.60;3.30;;;14.70;38.60;14.20;102015.00;;;;5042028;28;20559;-68
2021/04/26 10:55:32;;;;;;;6.38;3.45;;;14.80;43.00;14.00;102009.00;;;;5060444;28;20079;-68
2021/04/26 10:58:18;;;;;;;7.63;3.42;;;14.80;36.70;14.10;102007.00;;;;5057275;28;20045;-68
2021/04/26 11:00:45;;;;;;;5.03;3.28;;;14.80;41.50;14.00;102004.00;;;;5044661;28;20060;-69
2021/04/26 11:03:12;;;;;;;5.47;3.45;;;14.80;37.70;14.00;102000.00;;;;5055336;28;20043;-69
2021/04/26 11:05:40;;;;;;;;;;;14.70;42.30;14.00;101990.00;;;;5062934;28;20163;-69
2021/04/26 11:08:47;;;;;;;7.65;3.28;;;14.80;41.60;14.10;101975.00;;;;5058502;28;19928;-69
2021/04/26 11:11:18;;;;;;;4.05;2.92;;;14.90;41.00;14.10;101965.00;;;;5057089;28;20036;-70
2021/04/26 11:13:52;;;;;;;4.90;3.17;;;14.90;43.00;14.30;101976.00;;;;5056134;28;20131;-69
2021/04/26 11:16:32;;;;;;;5.13;3.33;;;15.00;41.80;14.50;101962.00;;;;5058649;28;20067;-68
2021/04/26 11:19:02;;;;;;;7.07;3.10;;;15.10;42.40;14.70;101965.00;;;;5053412;28;20063;-69